Time;durP1;ratioP1;P1;durP2;ratioP2;P2;SDS_P1;SDS_P2;PMS_P1;PMS_P2;Temp;Humidity;BMP_temperature;BMP_pressure;BME280_temperature;BME280_humidity;BME280_pressure;Samples;Min_cycle;Max_cycle;Signal;HPM_P1;HPM_P2
2023/03/05 00:00:27;;;;;;;4.88;3.38;;;5.90;99.90;;;;;;4988362;28;20494;-76
2023/03/05 00:02:54;;;;;;;6.65;3.85;;;5.80;99.90;;;;;;5007405;28;20474;-76
2023/03/05 00:05:21;;;;;;;4.93;3.42;;;5.80;99.90;;;;;;4967763;28;20049;-76
2023/03/05 00:07:48;;;;;;;4.07;3.10;;;5.80;99.90;;;;;;5020853;28;20183;-76
2023/03/05 00:10:15;;;;;;;4.15;3.08;;;5.80;99.90;;;;;;4988743;28;20065;-76
2023/03/05 00:12:41;;;;;;;3.88;2.70;;;5.80;99.90;;;;;;4973758;28;20057;-76
2023/03/05 00:15:08;;;;;;;4.05;2.50;;;5.80;99.90;;;;;;4990694;28;20068;-76
2023/03/05 00:17:36;;;;;;;2.65;2.10;;;5.80;99.90;;;;;;4986767;28;20111;-76
2023/03/05 00:20:03;;;;;;;3.25;2.22;;;5.80;99.90;;;;;;5001842;28;20060;-76
2023/03/05 00:22:30;;;;;;;2.85;2.13;;;5.80;99.90;;;;;;4991199;28;20154;-76
2023/03/05 00:24:56;;;;;;;3.97;2.65;;;5.80;99.90;;;;;;4992322;28;20346;-76
2023/03/05 00:27:23;;;;;;;4.90;2.20;;;5.70;99.90;;;;;;4967679;28;20092;-76
2023/03/05 00:29:50;;;;;;;4.35;2.65;;;5.70;99.90;;;;;;4986453;28;20107;-76
2023/03/05 00:32:17;;;;;;;3.15;2.33;;;5.70;99.90;;;;;;4991121;28;20077;-77
2023/03/05 00:34:44;;;;;;;3.05;2.00;;;5.70;99.90;;;;;;4988234;28;20253;-77
2023/03/05 00:37:11;;;;;;;4.55;2.80;;;5.70;99.90;;;;;;4971047;28;20654;-76
2023/03/05 00:39:38;;;;;;;3.40;2.33;;;5.70;99.90;;;;;;4986670;28;20080;-77
2023/03/05 00:42:05;;;;;;;3.08;2.42;;;5.70;99.90;;;;;;4989089;28;20055;-76
2023/03/05 00:44:32;;;;;;;3.85;2.75;;;5.70;99.90;;;;;;5003504;28;20168;-77
2023/03/05 00:46:59;;;;;;;3.55;2.75;;;5.70;99.90;;;;;;4986951;28;20053;-77
2023/03/05 00:49:26;;;;;;;3.88;2.90;;;5.70;99.90;;;;;;4966934;28;20221;-76
2023/03/05 00:51:52;;;;;;;3.72;2.88;;;5.70;99.90;;;;;;4994159;28;20702;-76
2023/03/05 00:54:20;;;;;;;3.50;2.47;;;5.70;99.90;;;;;;4991724;28;20053;-76
2023/03/05 00:56:48;;;;;;;3.28;2.45;;;5.60;99.90;;;;;;5002900;28;20057;-76
2023/03/05 00:59:14;;;;;;;3.08;2.42;;;5.70;99.90;;;;;;4986162;28;20072;-77
2023/03/05 01:01:41;;;;;;;3.53;2.10;;;5.70;99.90;;;;;;5024455;28;20132;-76
2023/03/05 01:04:08;;;;;;;4.20;3.05;;;5.70;99.90;;;;;;5003741;28;20060;-77
2023/03/05 01:06:36;;;;;;;4.22;2.80;;;5.70;99.90;;;;;;4985237;28;20555;-76
2023/03/05 01:09:03;;;;;;;3.78;2.83;;;5.60;99.90;;;;;;4985957;28;20139;-76
2023/03/05 01:11:30;;;;;;;3.08;2.50;;;5.60;99.90;;;;;;4987032;28;20133;-76
2023/03/05 01:13:57;;;;;;;3.67;2.80;;;5.60;99.90;;;;;;4989485;28;20049;-76
2023/03/05 01:16:25;;;;;;;5.53;3.65;;;5.60;99.90;;;;;;4986653;28;20148;-76
2023/03/05 01:18:55;;;;;;;4.43;3.50;;;5.60;99.90;;;;;;4984948;28;20493;-77
2023/03/05 01:21:22;;;;;;;3.42;3.00;;;5.50;99.90;;;;;;4991565;28;20431;-77
2023/03/05 01:23:48;;;;;;;3.55;2.88;;;5.60;99.90;;;;;;4989485;28;20410;-76
2023/03/05 01:26:15;;;;;;;2.78;2.13;;;5.60;99.90;;;;;;4985051;28;20053;-76
2023/03/05 01:28:42;;;;;;;4.18;3.00;;;5.60;99.90;;;;;;4984349;28;20054;-76
2023/03/05 01:31:10;;;;;;;2.70;2.10;;;5.60;99.90;;;;;;5022994;28;20084;-76
2023/03/05 01:33:37;;;;;;;3.67;3.08;;;5.60;99.90;;;;;;4986406;28;20045;-76
2023/03/05 01:36:13;;;;;;;5.15;3.00;;;5.60;99.90;;;;;;4985084;28;20479;-78
2023/03/05 01:38:41;;;;;;;5.95;3.13;;;5.60;99.90;;;;;;4986471;28;20057;-78
2023/03/05 01:41:09;;;;;;;3.97;3.17;;;5.50;99.90;;;;;;4980425;28;20080;-78
2023/03/05 01:43:35;;;;;;;3.83;2.95;;;5.50;99.90;;;;;;5001845;28;20055;-78
2023/03/05 01:46:25;;;;;;;3.90;2.53;;;5.50;99.90;;;;;;5001951;28;20048;-78
2023/03/05 01:49:03;;;;;;;3.38;2.83;;;5.60;99.90;;;;;;4999568;28;20065;-76
2023/03/05 01:51:33;;;;;;;2.83;2.10;;;5.60;99.90;;;;;;4989132;28;20060;-78
2023/03/05 01:54:00;;;;;;;4.22;3.03;;;5.60;99.90;;;;;;4988891;28;20041;-78
2023/03/05 01:56:27;;;;;;;5.68;3.45;;;5.60;99.90;;;;;;4985340;28;20144;-77
2023/03/05 01:58:54;;;;;;;3.70;3.25;;;5.50;99.90;;;;;;5001671;28;20147;-78
2023/03/05 02:01:21;;;;;;;3.60;2.95;;;5.50;99.90;;;;;;4987258;28;20049;-79
2023/03/05 02:03:47;;;;;;;3.40;2.58;;;5.50;99.90;;;;;;4988705;28;20749;-78
2023/03/05 02:06:14;;;;;;;4.15;3.22;;;5.50;99.90;;;;;;4985050;28;20057;-78
2023/03/05 02:08:41;;;;;;;3.80;2.83;;;5.50;99.90;;;;;;4969067;28;20510;-78
2023/03/05 02:11:09;;;;;;;4.53;2.63;;;5.50;99.90;;;;;;4973466;28;20091;-78
2023/03/05 02:13:37;;;;;;;4.25;3.03;;;5.50;99.90;;;;;;4992730;28;20064;-78
2023/03/05 02:16:04;;;;;;;3.80;3.03;;;5.50;99.90;;;;;;4968641;28;20221;-78
2023/03/05 02:18:31;;;;;;;3.00;2.30;;;5.50;99.90;;;;;;4983972;28;20150;-76
2023/03/05 02:21:10;;;;;;;2.47;2.03;;;5.60;99.90;;;;;;5018589;28;20095;-76
2023/03/05 02:23:37;;;;;;;2.72;2.22;;;5.50;99.90;;;;;;5006252;28;20470;-77
2023/03/05 02:26:05;;;;;;;2.70;2.22;;;5.50;99.90;;;;;;4985197;28;20049;-77
2023/03/05 02:28:49;;;;;;;2.30;1.73;;;5.50;99.90;;;;;;5000728;28;20096;-76
2023/03/05 02:31:18;;;;;;;2.97;1.83;;;5.60;99.90;;;;;;4299747;28;10000728;-76
2023/03/05 02:33:45;;;;;;;2.13;1.80;;;5.60;99.90;;;;;;5003643;28;20150;-76
2023/03/05 02:36:12;;;;;;;1.77;1.55;;;5.60;99.90;;;;;;4987011;28;20053;-76
2023/03/05 02:38:40;;;;;;;2.20;1.75;;;5.60;99.90;;;;;;5005036;28;20485;-76
2023/03/05 02:41:06;;;;;;;2.00;1.70;;;5.60;99.90;;;;;;5006420;28;20064;-76
2023/03/05 02:43:33;;;;;;;1.80;1.50;;;5.60;99.90;;;;;;4974362;28;20045;-76
2023/03/05 02:46:00;;;;;;;3.28;2.40;;;5.60;99.90;;;;;;4988693;28;20211;-76
2023/03/05 02:48:27;;;;;;;2.10;1.75;;;5.50;99.90;;;;;;5021880;28;20414;-76
2023/03/05 02:50:54;;;;;;;2.38;1.83;;;5.50;99.90;;;;;;4987830;28;20045;-76
2023/03/05 02:53:22;;;;;;;2.25;1.80;;;5.60;99.90;;;;;;5022446;28;20069;-76
2023/03/05 02:55:49;;;;;;;3.08;2.10;;;5.60;99.90;;;;;;4989003;28;20092;-76
2023/03/05 02:58:16;;;;;;;2.80;2.35;;;5.50;99.90;;;;;;4988933;28;20046;-76
2023/03/05 03:00:45;;;;;;;3.92;3.33;;;5.50;99.90;;;;;;4988514;28;20063;-76
2023/03/05 03:03:12;;;;;;;4.43;3.53;;;5.40;99.90;;;;;;5010033;28;20097;-77
2023/03/05 03:05:39;;;;;;;3.72;3.10;;;5.50;99.90;;;;;;5002993;28;20041;-76
2023/03/05 03:08:06;;;;;;;4.32;3.30;;;5.40;99.90;;;;;;5022795;28;20350;-76
2023/03/05 03:10:33;;;;;;;3.72;3.00;;;5.40;99.90;;;;;;5004255;28;20056;-76
2023/03/05 03:12:59;;;;;;;3.25;2.85;;;5.40;99.90;;;;;;4990076;28;20520;-76
2023/03/05 03:15:26;;;;;;;4.53;2.85;;;5.40;99.90;;;;;;5004522;28;20053;-76
2023/03/05 03:17:53;;;;;;;2.80;2.60;;;5.40;99.90;;;;;;4988232;28;20077;-76
2023/03/05 03:20:20;;;;;;;3.60;2.97;;;5.40;99.90;;;;;;4974570;28;20091;-76
2023/03/05 03:22:47;;;;;;;3.08;2.33;;;5.40;99.90;;;;;;4993604;28;20079;-76
2023/03/05 03:25:16;;;;;;;3.20;2.75;;;5.50;99.90;;;;;;4634900;28;10000167;-76
2023/03/05 03:27:43;;;;;;;2.60;2.40;;;5.50;99.90;;;;;;5011163;28;20309;-76
2023/03/05 03:30:11;;;;;;;1.85;1.63;;;5.50;99.90;;;;;;5005992;28;20885;-76
2023/03/05 03:32:37;;;;;;;2.20;1.98;;;5.50;99.90;;;;;;4996308;28;20147;-76
2023/03/05 03:35:05;;;;;;;2.75;2.38;;;5.50;99.90;;;;;;4992281;28;20045;-76
2023/03/05 03:37:32;;;;;;;2.85;2.55;;;5.40;99.90;;;;;;4993566;28;20168;-76
2023/03/05 03:39:58;;;;;;;3.50;2.60;;;5.40;99.90;;;;;;4994136;28;20048;-76
2023/03/05 03:42:27;;;;;;;3.97;2.90;;;5.40;99.90;;;;;;5010652;28;20049;-76
2023/03/05 03:44:53;;;;;;;3.30;2.30;;;5.30;99.90;;;;;;4993244;28;20676;-77
2023/03/05 03:47:21;;;;;;;2.90;2.55;;;5.30;99.90;;;;;;4993713;28;20073;-76
2023/03/05 03:49:47;;;;;;;3.47;2.50;;;5.30;99.90;;;;;;5004646;28;20056;-76
2023/03/05 03:52:14;;;;;;;3.78;2.50;;;5.30;99.90;;;;;;5010204;28;20076;-76
2023/03/05 03:54:42;;;;;;;4.35;3.20;;;5.20;99.90;;;;;;5029147;28;20128;-76
2023/03/05 03:57:08;;;;;;;3.85;2.60;;;5.20;99.90;;;;;;5010439;28;20128;-76
2023/03/05 03:59:35;;;;;;;3.05;2.40;;;5.10;99.90;;;;;;5009540;28;20046;-76
2023/03/05 04:02:02;;;;;;;3.40;2.80;;;5.10;99.90;;;;;;4993689;28;20056;-76
2023/03/05 04:04:29;;;;;;;3.25;2.72;;;5.10;99.90;;;;;;5009269;28;20085;-76
2023/03/05 04:06:56;;;;;;;2.83;2.38;;;5.10;99.90;;;;;;5009177;28;20049;-76
2023/03/05 04:09:22;;;;;;;3.42;2.55;;;5.10;99.90;;;;;;5027220;28;20645;-76
2023/03/05 04:11:49;;;;;;;3.10;2.50;;;5.10;99.90;;;;;;5027192;28;20045;-76
2023/03/05 04:14:16;;;;;;;3.35;2.60;;;5.00;99.90;;;;;;4996228;28;20037;-76
2023/03/05 04:16:43;;;;;;;3.00;2.25;;;5.00;99.90;;;;;;5027417;28;20319;-76
2023/03/05 04:19:10;;;;;;;3.60;2.35;;;5.00;99.90;;;;;;5008031;28;20048;-76
2023/03/05 04:21:36;;;;;;;3.58;2.50;;;5.00;99.90;;;;;;4992291;28;20132;-76
2023/03/05 04:24:03;;;;;;;4.15;2.67;;;5.00;99.90;;;;;;4994804;28;20052;-76
2023/03/05 04:26:30;;;;;;;3.28;2.17;;;5.00;99.90;;;;;;5009507;28;20195;-77
2023/03/05 04:28:57;;;;;;;3.58;2.45;;;5.00;99.90;;;;;;4992673;28;20132;-76
2023/03/05 04:31:24;;;;;;;2.80;2.30;;;5.00;99.90;;;;;;5026964;28;20046;-76
2023/03/05 04:33:50;;;;;;;3.50;2.50;;;5.00;99.90;;;;;;5008360;28;20053;-76
2023/03/05 04:36:17;;;;;;;3.13;2.13;;;4.90;99.90;;;;;;5024529;28;20049;-76
2023/03/05 04:38:44;;;;;;;2.63;2.30;;;4.90;99.90;;;;;;4992263;28;20162;-76
2023/03/05 04:41:11;;;;;;;5.43;3.08;;;4.90;99.90;;;;;;5008934;28;20124;-76
2023/03/05 04:43:37;;;;;;;3.78;3.17;;;4.90;99.90;;;;;;5029270;28;20052;-75
2023/03/05 04:46:04;;;;;;;4.38;3.65;;;4.80;99.90;;;;;;4992981;28;20075;-76
2023/03/05 04:48:31;;;;;;;4.03;3.33;;;4.80;99.90;;;;;;5007099;28;20061;-75
2023/03/05 04:50:58;;;;;;;4.13;3.22;;;4.80;99.90;;;;;;5008059;28;20045;-76
2023/03/05 04:53:25;;;;;;;4.55;3.38;;;4.80;99.90;;;;;;5008998;28;20473;-76
2023/03/05 04:55:53;;;;;;;4.75;4.28;;;4.80;99.90;;;;;;5009029;28;20053;-76
2023/03/05 04:58:20;;;;;;;5.63;4.40;;;4.70;99.90;;;;;;5008910;28;20069;-76
2023/03/05 05:00:47;;;;;;;4.18;3.75;;;4.70;99.90;;;;;;5025566;28;20057;-76
2023/03/05 05:03:14;;;;;;;3.92;3.25;;;4.70;99.90;;;;;;5025717;28;20042;-76
2023/03/05 05:05:41;;;;;;;4.60;3.55;;;4.70;99.90;;;;;;5024366;28;20065;-77
2023/03/05 05:08:08;;;;;;;3.95;3.42;;;4.70;99.90;;;;;;5008942;28;20071;-77
2023/03/05 05:10:38;;;;;;;4.80;4.15;;;4.70;99.90;;;;;;4992031;28;20049;-77
2023/03/05 05:13:05;;;;;;;3.70;3.03;;;4.70;99.90;;;;;;5026076;28;20069;-76
2023/03/05 05:15:32;;;;;;;4.57;3.63;;;4.70;99.90;;;;;;4991611;28;20501;-76
2023/03/05 05:17:59;;;;;;;4.57;3.60;;;4.70;99.90;;;;;;5007940;28;20456;-76
2023/03/05 05:20:25;;;;;;;3.85;3.33;;;4.70;99.90;;;;;;4974328;28;20057;-76
2023/03/05 05:22:52;;;;;;;3.88;3.35;;;4.70;99.90;;;;;;5006868;28;20072;-76
2023/03/05 05:25:19;;;;;;;4.43;3.72;;;4.70;99.90;;;;;;4991043;28;20133;-76
2023/03/05 05:27:46;;;;;;;3.88;3.20;;;4.70;99.90;;;;;;5007380;28;20049;-78
2023/03/05 05:30:13;;;;;;;3.72;2.75;;;4.70;99.90;;;;;;4991525;28;20132;-76
2023/03/05 05:32:40;;;;;;;4.55;3.28;;;4.70;99.90;;;;;;4989279;28;20651;-76
2023/03/05 05:35:07;;;;;;;3.45;3.05;;;4.70;99.90;;;;;;4989731;28;20111;-76
2023/03/05 05:37:34;;;;;;;4.35;3.08;;;4.70;99.90;;;;;;4990634;28;20109;-76
2023/03/05 05:40:01;;;;;;;3.83;2.70;;;4.70;99.90;;;;;;4990962;28;20060;-76
2023/03/05 05:42:28;;;;;;;4.13;3.45;;;4.70;99.90;;;;;;5010036;28;20057;-76
2023/03/05 05:44:55;;;;;;;4.65;2.75;;;4.60;99.90;;;;;;5008016;28;20136;-75
2023/03/05 05:47:21;;;;;;;3.40;3.03;;;4.70;99.90;;;;;;5006692;28;20065;-76
2023/03/05 05:49:48;;;;;;;3.65;3.20;;;4.60;99.90;;;;;;5001920;28;20049;-76
2023/03/05 05:52:15;;;;;;;4.63;3.30;;;4.60;99.90;;;;;;4982724;28;20575;-76
2023/03/05 05:54:42;;;;;;;3.95;3.00;;;4.60;99.90;;;;;;4980477;28;20046;-76
2023/03/05 05:57:09;;;;;;;4.80;3.58;;;4.60;99.90;;;;;;4967290;28;20530;-76
2023/03/05 05:59:37;;;;;;;3.90;2.95;;;4.60;99.90;;;;;;5000026;28;20136;-77
2023/03/05 06:02:06;;;;;;;4.93;3.75;;;4.60;99.90;;;;;;4984530;28;20060;-76
2023/03/05 06:04:36;;;;;;;4.38;3.92;;;4.60;99.90;;;;;;4995398;28;20057;-76
2023/03/05 06:07:03;;;;;;;4.18;3.63;;;4.50;99.90;;;;;;4972704;28;20109;-76
2023/03/05 06:09:30;;;;;;;3.67;3.10;;;4.50;99.90;;;;;;4984364;28;20053;-76
2023/03/05 06:11:57;;;;;;;4.25;3.55;;;4.50;99.90;;;;;;4968924;28;20455;-76
2023/03/05 06:14:24;;;;;;;5.45;3.58;;;4.50;99.90;;;;;;4982807;28;20404;-76
2023/03/05 06:16:51;;;;;;;3.83;3.42;;;4.50;99.90;;;;;;4985951;28;20568;-76
2023/03/05 06:19:18;;;;;;;4.20;3.33;;;4.50;99.90;;;;;;5009303;28;20123;-77
2023/03/05 06:21:45;;;;;;;6.40;3.00;;;4.50;99.90;;;;;;5009736;28;20970;-76
2023/03/05 06:24:12;;;;;;;3.97;2.65;;;4.50;99.90;;;;;;4994635;28;20292;-75
2023/03/05 06:26:39;;;;;;;3.78;2.95;;;4.50;99.90;;;;;;4983588;28;20057;-76
2023/03/05 06:29:07;;;;;;;4.47;2.92;;;4.50;99.90;;;;;;5017472;28;20053;-76
2023/03/05 06:31:34;;;;;;;4.20;3.28;;;4.50;99.90;;;;;;5015847;28;20079;-76
2023/03/05 06:34:03;;;;;;;4.40;2.88;;;4.50;99.90;;;;;;5015000;28;20504;-76
2023/03/05 06:36:30;;;;;;;3.38;2.67;;;4.50;99.90;;;;;;4981689;28;20141;-76
2023/03/05 06:38:57;;;;;;;3.08;2.63;;;4.50;99.90;;;;;;4989226;28;20125;-76
2023/03/05 06:41:26;;;;;;;4.47;2.72;;;4.50;99.90;;;;;;5015997;28;20118;-76
2023/03/05 06:43:53;;;;;;;3.10;2.33;;;4.50;99.90;;;;;;4969677;28;20522;-76
2023/03/05 06:46:23;;;;;;;3.33;2.90;;;4.50;99.90;;;;;;4980491;28;20787;-76
2023/03/05 06:48:50;;;;;;;4.00;3.10;;;4.50;99.90;;;;;;4980365;28;20175;-76
2023/03/05 06:51:22;;;;;;;4.38;2.92;;;4.40;99.90;;;;;;4996518;28;20399;-75
2023/03/05 06:53:49;;;;;;;3.33;2.67;;;4.40;99.90;;;;;;5001478;28;20088;-76
2023/03/05 06:56:16;;;;;;;3.10;2.55;;;4.40;99.90;;;;;;4993425;28;20132;-76
2023/03/05 06:58:44;;;;;;;4.07;3.30;;;4.50;99.90;;;;;;4983316;28;20085;-75
2023/03/05 07:01:12;;;;;;;3.83;3.08;;;4.50;99.90;;;;;;4996339;28;20149;-75
2023/03/05 07:03:39;;;;;;;4.07;2.88;;;4.50;99.90;;;;;;4977776;28;20041;-75
2023/03/05 07:06:07;;;;;;;4.43;3.95;;;4.50;99.90;;;;;;4994197;28;20052;-76
2023/03/05 07:08:34;;;;;;;5.65;4.38;;;4.40;99.90;;;;;;4979531;28;20392;-75
2023/03/05 07:11:02;;;;;;;6.05;4.85;;;4.40;99.90;;;;;;4980258;28;20073;-76
2023/03/05 07:13:28;;;;;;;5.43;4.35;;;4.40;99.90;;;;;;4998127;28;20835;-76
2023/03/05 07:15:55;;;;;;;4.22;3.38;;;4.40;99.90;;;;;;4977626;28;20475;-75
2023/03/05 07:18:22;;;;;;;4.68;3.72;;;4.40;99.90;;;;;;4997718;28;20045;-75
2023/03/05 07:20:49;;;;;;;6.70;4.53;;;4.40;99.90;;;;;;4979843;28;20689;-75
2023/03/05 07:23:15;;;;;;;4.45;3.53;;;4.40;99.90;;;;;;4999422;28;20057;-75
2023/03/05 07:25:43;;;;;;;6.22;4.18;;;4.40;99.90;;;;;;4977340;28;20224;-76
2023/03/05 07:28:09;;;;;;;4.47;3.50;;;4.50;99.90;;;;;;4982444;28;20144;-76
2023/03/05 07:30:36;;;;;;;5.75;4.53;;;4.50;99.90;;;;;;5016982;28;20135;-76
2023/03/05 07:33:03;;;;;;;5.40;3.65;;;4.50;99.90;;;;;;5001149;28;20149;-76
2023/03/05 07:35:30;;;;;;;4.30;3.70;;;4.50;99.90;;;;;;4979743;28;20052;-76
2023/03/05 07:37:57;;;;;;;5.80;4.30;;;4.50;99.90;;;;;;4998191;28;20074;-75
2023/03/05 07:40:24;;;;;;;5.53;4.15;;;4.40;99.90;;;;;;4977519;28;20057;-76
2023/03/05 07:42:52;;;;;;;5.72;3.90;;;4.50;99.90;;;;;;4978517;28;20081;-76
2023/03/05 07:45:19;;;;;;;4.38;3.38;;;4.50;99.90;;;;;;5013415;28;20049;-77
2023/03/05 07:47:46;;;;;;;4.80;3.67;;;4.50;99.90;;;;;;4978240;28;20049;-75
2023/03/05 07:50:13;;;;;;;4.28;3.20;;;4.60;99.90;;;;;;4983726;28;20132;-75
2023/03/05 07:52:40;;;;;;;4.97;3.60;;;4.60;99.90;;;;;;4985697;28;20423;-76
2023/03/05 07:55:07;;;;;;;5.78;4.35;;;4.60;99.90;;;;;;4964346;28;20129;-76
2023/03/05 07:57:36;;;;;;;8.07;5.40;;;4.60;99.90;;;;;;4998322;28;20057;-76
2023/03/05 08:00:05;;;;;;;5.32;4.70;;;4.60;99.90;;;;;;5013800;28;20133;-76
2023/03/05 08:02:32;;;;;;;5.97;4.50;;;4.60;99.90;;;;;;4984489;28;20136;-76
2023/03/05 08:04:59;;;;;;;8.25;5.30;;;4.60;99.90;;;;;;4995700;28;20117;-76
2023/03/05 08:07:26;;;;;;;4.55;3.83;;;4.60;99.90;;;;;;5012066;28;20512;-75
2023/03/05 08:09:52;;;;;;;9.23;5.93;;;4.60;99.90;;;;;;4981576;28;20111;-76
2023/03/05 08:12:19;;;;;;;6.78;5.20;;;4.60;99.90;;;;;;4985792;28;20056;-76
2023/03/05 08:14:46;;;;;;;5.10;4.60;;;4.60;99.90;;;;;;4972172;28;20515;-75
2023/03/05 08:17:13;;;;;;;4.80;4.28;;;4.70;99.90;;;;;;5016609;28;20286;-75
2023/03/05 08:19:40;;;;;;;4.82;4.10;;;4.70;99.90;;;;;;5001728;28;20045;-76
2023/03/05 08:22:07;;;;;;;5.45;4.50;;;4.80;99.90;;;;;;5019222;28;20495;-75
2023/03/05 08:24:34;;;;;;;4.35;3.67;;;4.80;99.90;;;;;;5000599;28;20528;-75
2023/03/05 08:27:00;;;;;;;5.00;4.10;;;4.90;99.90;;;;;;4997704;28;20429;-76
2023/03/05 08:29:27;;;;;;;4.60;3.67;;;4.90;99.90;;;;;;5017876;28;20081;-75
2023/03/05 08:31:55;;;;;;;4.78;3.92;;;4.90;99.90;;;;;;4998546;28;20071;-76
2023/03/05 08:34:22;;;;;;;5.32;3.63;;;4.90;99.90;;;;;;4995578;28;20115;-75
2023/03/05 08:36:49;;;;;;;3.75;3.35;;;4.90;99.90;;;;;;4964412;28;20123;-75
2023/03/05 08:39:17;;;;;;;3.97;3.40;;;5.00;99.90;;;;;;5000269;28;20267;-76
2023/03/05 08:41:44;;;;;;;4.35;3.95;;;5.00;99.90;;;;;;4983551;28;20061;-75
2023/03/05 08:44:11;;;;;;;8.82;4.78;;;5.00;99.90;;;;;;4984920;28;20059;-75
2023/03/05 08:46:38;;;;;;;5.45;4.95;;;5.00;99.90;;;;;;5016296;28;20472;-76
2023/03/05 08:49:06;;;;;;;7.47;5.63;;;5.00;99.90;;;;;;4964585;28;20061;-75
2023/03/05 08:51:33;;;;;;;5.07;4.38;;;5.00;99.90;;;;;;4960954;28;20054;-76
2023/03/05 08:54:01;;;;;;;5.65;4.20;;;5.10;99.90;;;;;;4969332;28;20109;-76
2023/03/05 08:56:30;;;;;;;4.47;3.53;;;5.10;99.90;;;;;;4962120;28;20172;-76
2023/03/05 08:58:56;;;;;;;6.18;4.78;;;5.10;99.90;;;;;;4967215;28;20142;-76
2023/03/05 09:01:23;;;;;;;4.88;4.38;;;5.20;99.90;;;;;;4962467;28;20141;-76
2023/03/05 09:03:50;;;;;;;6.28;5.68;;;5.20;99.90;;;;;;4978328;28;20053;-76
2023/03/05 09:06:17;;;;;;;5.60;4.93;;;5.20;99.90;;;;;;4975311;28;20050;-76
2023/03/05 09:08:44;;;;;;;6.97;5.05;;;5.20;99.90;;;;;;4966032;28;20297;-76
2023/03/05 09:11:12;;;;;;;6.05;5.43;;;5.20;99.90;;;;;;4963097;28;20046;-75
2023/03/05 09:13:39;;;;;;;5.60;4.95;;;5.20;99.90;;;;;;4964254;28;20268;-76
2023/03/05 09:16:08;;;;;;;5.72;5.13;;;5.20;99.90;;;;;;4977992;28;20054;-76
2023/03/05 09:18:35;;;;;;;7.85;7.00;;;5.20;99.90;;;;;;4959538;28;20149;-75
2023/03/05 09:21:06;;;;;;;7.03;6.15;;;5.20;99.90;;;;;;4977966;28;20560;-76
2023/03/05 09:23:33;;;;;;;7.60;6.80;;;5.30;99.90;;;;;;4967257;28;20054;-76
2023/03/05 09:26:00;;;;;;;8.73;6.90;;;5.30;99.90;;;;;;4975597;28;20137;-76
2023/03/05 09:28:28;;;;;;;10.68;8.18;;;5.40;99.90;;;;;;4980245;28;20061;-75
2023/03/05 09:30:54;;;;;;;8.25;6.22;;;5.30;99.90;;;;;;4978437;28;20058;-76
2023/03/05 09:33:22;;;;;;;10.73;9.63;;;5.30;99.90;;;;;;4982447;28;20147;-76
2023/03/05 09:35:49;;;;;;;11.32;8.90;;;5.30;99.90;;;;;;4955832;28;20050;-75
2023/03/05 09:38:17;;;;;;;9.38;7.53;;;5.30;99.90;;;;;;4959434;28;20250;-76
2023/03/05 09:41:22;;;;;;;9.00;8.10;;;5.30;99.90;;;;;;4976454;28;20501;-75
2023/03/05 09:43:53;;;;;;;;;;;5.40;99.90;;;;;;4988059;28;20123;-75
2023/03/05 09:46:22;;;;;;;8.18;6.45;;;5.40;99.90;;;;;;4976637;28;20277;-75
2023/03/05 09:49:02;;;;;;;9.68;7.72;;;5.50;99.90;;;;;;4995086;28;20396;-76
2023/03/05 09:51:30;;;;;;;9.23;7.95;;;5.60;99.90;;;;;;4983812;28;20053;-76
2023/03/05 09:54:11;;;;;;;7.68;6.57;;;5.60;99.90;;;;;;5006959;28;20100;-75
2023/03/05 09:56:43;;;;;;;8.70;7.80;;;5.70;99.90;;;;;;4994951;28;20107;-75
2023/03/05 09:59:31;;;;;;;8.93;7.55;;;5.80;99.90;;;;;;4992740;28;20124;-76
2023/03/05 10:02:04;;;;;;;7.60;6.75;;;5.90;99.90;;;;;;5004090;28;20153;-76
2023/03/05 10:04:42;;;;;;;8.93;6.97;;;5.90;99.90;;;;;;4994099;28;20061;-76
2023/03/05 10:07:23;;;;;;;8.40;6.82;;;6.00;99.90;;;;;;4971562;28;20481;-76
2023/03/05 10:09:59;;;;;;;9.98;8.55;;;6.00;99.90;;;;;;5002484;28;20388;-76
2023/03/05 10:12:45;;;;;;;8.70;7.20;;;6.00;99.90;;;;;;4985284;28;20059;-75
2023/03/05 10:15:14;;;;;;;8.73;7.82;;;5.90;99.90;;;;;;4995021;28;20049;-76
2023/03/05 10:18:11;;;;;;;9.57;7.95;;;5.90;99.90;;;;;;4981342;28;20052;-77
2023/03/05 10:20:58;;;;;;;9.20;8.10;;;6.00;99.90;;;;;;4994822;28;20060;-78
2023/03/05 10:23:35;;;;;;;9.77;8.45;;;6.00;99.90;;;;;;5008300;28;20049;-77
2023/03/05 10:26:06;;;;;;;7.70;6.90;;;6.10;99.90;;;;;;4971655;28;20135;-77
2023/03/05 10:28:48;;;;;;;6.60;5.68;;;6.30;99.90;;;;;;4996074;28;20144;-78
2023/03/05 10:31:52;;;;;;;7.10;6.40;;;6.50;99.90;;;;;;4997420;28;20316;-77
2023/03/05 10:34:24;;;;;;;10.57;9.07;;;6.50;99.90;;;;;;4955884;28;20135;-78
2023/03/05 10:37:11;;;;;;;9.50;8.50;;;6.30;99.60;;;;;;5013980;28;20077;-77
2023/03/05 10:40:16;;;;;;;8.82;7.93;;;6.30;99.90;;;;;;4998383;28;20562;-77
2023/03/05 10:42:49;;;;;;;11.13;8.90;;;6.40;99.90;;;;;;5024719;28;20360;-77
2023/03/05 10:45:28;;;;;;;11.43;9.85;;;6.40;99.90;;;;;;4969149;28;20083;-78
2023/03/05 10:48:20;;;;;;;10.65;9.55;;;6.40;99.90;;;;;;4979431;28;20064;-77
2023/03/05 10:50:49;;;;;;;10.60;9.45;;;6.50;99.90;;;;;;4962226;28;20053;-76
2023/03/05 10:53:28;;;;;;;12.95;11.30;;;6.40;99.90;;;;;;4969728;28;20045;-75
2023/03/05 10:55:55;;;;;;;12.70;11.40;;;6.30;99.90;;;;;;5002111;28;20453;-75
2023/03/05 10:58:23;;;;;;;13.20;9.90;;;6.20;99.90;;;;;;4991664;28;20061;-75
2023/03/05 11:01:09;;;;;;;13.77;11.68;;;6.40;99.90;;;;;;4983622;28;20064;-75
2023/03/05 11:03:52;;;;;;;13.77;11.73;;;6.40;99.50;;;;;;5000867;28;20103;-75
2023/03/05 11:06:39;;;;;;;13.68;11.07;;;6.50;99.60;;;;;;4996870;28;20399;-75
2023/03/05 11:09:28;;;;;;;11.90;9.93;;;6.50;99.00;;;;;;4996956;28;20081;-75
2023/03/05 11:12:15;;;;;;;11.63;10.38;;;6.40;98.90;;;;;;4649094;28;10000412;-75
2023/03/05 11:14:44;;;;;;;10.93;9.77;;;6.30;98.60;;;;;;4995021;28;20053;-75
2023/03/05 11:17:31;;;;;;;10.52;8.65;;;6.40;98.70;;;;;;4978398;28;20054;-75
2023/03/05 11:20:36;;;;;;;14.25;11.27;;;6.50;98.50;;;;;;5014706;28;20057;-75
2023/03/05 11:23:13;;;;;;;14.23;11.25;;;6.50;98.60;;;;;;5016344;28;20052;-75
2023/03/05 11:26:00;;;;;;;9.50;8.60;;;6.40;98.30;;;;;;4995680;28;20072;-76
2023/03/05 11:28:34;;;;;;;10.20;8.93;;;6.50;98.30;;;;;;4978366;28;20520;-75
2023/03/05 11:31:06;;;;;;;12.25;9.43;;;6.60;98.00;;;;;;5003215;28;20045;-75
2023/03/05 11:33:34;;;;;;;9.82;8.73;;;6.70;98.20;;;;;;5007617;28;20455;-75
2023/03/05 11:36:22;;;;;;;10.23;9.18;;;6.70;98.00;;;;;;4990800;28;20152;-75
2023/03/05 11:38:58;;;;;;;10.10;9.07;;;6.70;98.00;;;;;;5010835;28;20155;-75
2023/03/05 11:41:30;;;;;;;16.48;13.85;;;6.80;98.50;;;;;;4971416;28;20528;-75
2023/03/05 11:43:57;;;;;;;13.55;12.15;;;6.70;98.20;;;;;;4990258;28;21018;-75
2023/03/05 11:46:31;;;;;;;11.95;10.60;;;6.70;98.00;;;;;;4993107;28;20168;-75
2023/03/05 11:48:58;;;;;;;12.80;9.82;;;6.80;97.60;;;;;;4990702;28;20092;-75
2023/03/05 11:51:30;;;;;;;11.52;9.73;;;6.90;97.60;;;;;;4994691;28;20107;-76
2023/03/05 11:54:00;;;;;;;10.68;9.55;;;6.90;97.80;;;;;;4985270;28;20046;-76
2023/03/05 11:56:30;;;;;;;11.95;10.57;;;6.90;97.60;;;;;;4990082;28;20057;-75
2023/03/05 11:59:02;;;;;;;10.85;9.75;;;7.00;97.30;;;;;;4982195;28;20536;-74
2023/03/05 12:01:32;;;;;;;10.77;9.50;;;6.90;97.50;;;;;;4978385;28;20140;-74
2023/03/05 12:03:59;;;;;;;10.68;9.57;;;7.00;97.80;;;;;;4983243;28;20197;-74
2023/03/05 12:06:53;;;;;;;13.73;11.30;;;7.10;97.80;;;;;;4997681;28;20453;-74
2023/03/05 12:09:39;;;;;;;13.90;12.07;;;6.90;97.70;;;;;;4997958;28;20124;-74
2023/03/05 12:12:29;;;;;;;12.73;11.30;;;6.80;98.00;;;;;;4978864;28;20575;-74
2023/03/05 12:15:24;;;;;;;13.25;11.32;;;6.80;97.50;;;;;;5016336;28;20504;-78
2023/03/05 12:17:50;;;;;;;13.32;11.55;;;6.70;97.80;;;;;;4974525;28;20453;-76
2023/03/05 12:20:44;;;;;;;11.95;9.77;;;6.90;98.30;;;;;;5015474;28;20127;-76
2023/03/05 12:23:18;;;;;;;13.15;10.77;;;6.90;97.50;;;;;;4990347;28;20778;-77
2023/03/05 12:25:58;;;;;;;11.82;9.90;;;6.70;97.20;;;;;;4969616;28;20215;-77
2023/03/05 12:28:31;;;;;;;10.18;8.63;;;6.70;97.10;;;;;;4976796;28;20181;-77
2023/03/05 12:31:08;;;;;;;11.10;9.95;;;6.70;96.80;;;;;;4985998;28;20045;-76
2023/03/05 12:33:38;;;;;;;12.52;10.23;;;6.50;97.80;;;;;;4982582;28;20304;-76
2023/03/05 12:36:20;;;;;;;14.35;11.70;;;6.50;98.20;;;;;;4996155;28;20527;-78
2023/03/05 12:38:52;;;;;;;12.38;11.02;;;6.40;98.30;;;;;;5016282;28;20053;-78
2023/03/05 12:41:22;;;;;;;11.77;10.32;;;6.60;98.10;;;;;;4998181;28;20049;-77
2023/03/05 12:44:04;;;;;;;12.43;11.07;;;6.70;98.30;;;;;;5012629;28;20127;-78
2023/03/05 12:46:41;;;;;;;15.75;12.88;;;6.60;98.00;;;;;;5011911;28;20122;-78
2023/03/05 12:49:17;;;;;;;10.77;9.45;;;6.60;98.10;;;;;;4985662;28;20276;-78
2023/03/05 12:51:48;;;;;;;14.38;10.77;;;6.60;98.60;;;;;;5012901;28;20054;-77
2023/03/05 12:54:38;;;;;;;10.48;9.00;;;6.60;98.00;;;;;;5014077;28;20437;-78
2023/03/05 12:57:16;;;;;;;12.10;9.18;;;6.50;98.20;;;;;;4994865;28;20060;-77
2023/03/05 12:59:48;;;;;;;10.82;8.52;;;6.40;98.80;;;;;;4996669;28;20473;-78
2023/03/05 13:02:21;;;;;;;11.38;9.50;;;6.40;98.70;;;;;;4998381;28;20167;-77
2023/03/05 13:04:48;;;;;;;13.00;10.57;;;6.30;98.90;;;;;;5009173;28;20260;-78
2023/03/05 13:07:16;;;;;;;14.38;12.18;;;6.20;99.20;;;;;;4994406;28;20334;-78
2023/03/05 13:09:58;;;;;;;12.95;10.85;;;6.00;99.40;;;;;;4968342;28;20181;-78